Time;durP1;ratioP1;P1;durP2;ratioP2;P2;SDS_P1;SDS_P2;PMS_P1;PMS_P2;Temp;Humidity;BMP_temperature;BMP_pressure;BME280_temperature;BME280_humidity;BME280_pressure;Samples;Min_cycle;Max_cycle;Signal;HPM_P1;HPM_P2
2022/01/29 00:01:41;;;;;;;38.55;19.55;;;;;;;1.92;100.00;100073.55;1664232;85;21091;-66
2022/01/29 00:04:10;;;;;;;39.35;19.73;;;;;;;1.90;100.00;100078.24;1664229;86;21117;-66
2022/01/29 00:06:37;;;;;;;43.33;21.10;;;;;;;1.92;100.00;100072.27;1664042;85;21103;-65
2022/01/29 00:09:04;;;;;;;40.40;19.60;;;;;;;2.00;100.00;100080.60;1664160;86;21069;-65
2022/01/29 00:11:35;;;;;;;39.23;19.23;;;;;;;1.93;100.00;100074.41;1663953;86;21119;-65
2022/01/29 00:14:00;;;;;;;43.98;21.00;;;;;;;1.96;100.00;100075.61;1664466;85;21509;-66
2022/01/29 00:16:29;;;;;;;40.50;20.72;;;;;;;1.97;100.00;100079.40;1663916;85;21064;-65
2022/01/29 00:18:56;;;;;;;41.28;21.37;;;;;;;1.91;100.00;100078.23;1664201;86;21106;-66
2022/01/29 00:21:23;;;;;;;40.55;20.92;;;;;;;1.95;100.00;100080.30;1664032;86;21028;-66
2022/01/29 00:23:50;;;;;;;41.70;20.52;;;;;;;1.98;100.00;100082.77;1664219;85;21118;-65
2022/01/29 00:26:22;;;;;;;42.17;21.20;;;;;;;1.94;100.00;100079.44;1663864;85;21020;-65
2022/01/29 00:28:48;;;;;;;42.40;20.27;;;;;;;1.91;100.00;100079.94;1664249;85;21043;-65
2022/01/29 00:31:17;;;;;;;43.58;20.68;;;;;;;1.95;100.00;100073.95;1664051;85;21028;-66
2022/01/29 00:33:45;;;;;;;44.40;23.65;;;;;;;1.86;100.00;100066.47;1664332;86;21544;-65
2022/01/29 00:36:12;;;;;;;40.90;21.05;;;;;;;1.88;100.00;100076.98;1663938;85;21555;-65
2022/01/29 00:38:39;;;;;;;47.70;22.67;;;;;;;1.79;100.00;100070.80;1664072;85;21550;-66
2022/01/29 00:41:07;;;;;;;41.88;20.75;;;;;;;1.80;100.00;100068.25;1664187;86;21075;-66
2022/01/29 00:43:34;;;;;;;38.40;20.57;;;;;;;1.73;100.00;100063.28;1664023;85;21084;-66
2022/01/29 00:46:01;;;;;;;38.73;20.05;;;;;;;1.75;100.00;100063.66;1663184;85;21138;-66
2022/01/29 00:48:28;;;;;;;43.17;21.82;;;;;;;1.77;100.00;100058.57;1664147;86;21122;-67
2022/01/29 00:50:57;;;;;;;45.75;22.20;;;;;;;1.83;100.00;100057.64;1664040;85;21096;-65
2022/01/29 00:53:24;;;;;;;41.23;20.80;;;;;;;1.84;100.00;100056.33;1664035;86;21024;-65
2022/01/29 00:55:51;;;;;;;50.23;22.32;;;;;;;1.78;100.00;100058.96;1664321;85;21036;-65
2022/01/29 00:58:18;;;;;;;43.58;22.77;;;;;;;1.80;100.00;100058.09;1664099;86;21619;-66
2022/01/29 01:00:46;;;;;;;37.93;19.42;;;;;;;1.87;100.00;100051.66;1664146;85;21083;-66
2022/01/29 01:03:14;;;;;;;44.55;22.05;;;;;;;1.85;100.00;100049.14;1664024;85;21091;-65
2022/01/29 01:05:41;;;;;;;43.15;21.12;;;;;;;1.82;100.00;100044.53;1664185;86;21079;-65
2022/01/29 01:08:11;;;;;;;41.90;20.30;;;;;;;1.82;100.00;100048.34;1663850;85;21068;-65
2022/01/29 01:10:38;;;;;;;46.37;21.75;;;;;;;1.78;100.00;100045.86;1664220;86;21051;-66
2022/01/29 01:13:06;;;;;;;42.10;20.35;;;;;;;1.82;100.00;100044.09;1664015;85;21527;-65
2022/01/29 01:15:34;;;;;;;43.13;20.72;;;;;;;1.79;100.00;100047.52;1664102;86;21103;-65
2022/01/29 01:18:01;;;;;;;43.02;22.27;;;;;;;1.86;100.00;100043.63;1664248;86;21087;-65
2022/01/29 01:20:29;;;;;;;41.73;20.90;;;;;;;1.85;100.00;100040.25;1664088;86;21067;-66
2022/01/29 01:22:56;;;;;;;42.10;21.10;;;;;;;1.90;100.00;100042.71;1664158;86;21071;-65
2022/01/29 01:25:24;;;;;;;40.75;20.70;;;;;;;1.94;100.00;100044.34;1664265;86;21527;-66
2022/01/29 01:27:52;;;;;;;41.13;20.97;;;;;;;1.98;100.00;100045.95;1663954;86;21056;-65
2022/01/29 01:30:19;;;;;;;42.33;21.90;;;;;;;1.93;100.00;100049.02;1663937;85;21642;-65
2022/01/29 01:32:48;;;;;;;45.45;23.12;;;;;;;1.99;100.00;100048.92;1663936;86;21099;-65
2022/01/29 01:35:23;;;;;;;43.63;22.27;;;;;;;1.92;100.00;100044.79;1663991;86;21047;-65
2022/01/29 01:37:55;;;;;;;51.55;24.75;;;;;;;1.92;100.00;100046.06;1663365;86;21524;-65
2022/01/29 01:40:16;;;;;;;52.45;25.80;;;;;;;1.88;100.00;100039.36;1663491;86;21512;-66
2022/01/29 01:42:43;;;;;;;53.55;26.40;;;;;;;1.93;100.00;100041.41;1664151;85;21064;-65
2022/01/29 01:45:11;;;;;;;56.80;26.40;;;;;;;1.89;100.00;100039.34;1664216;85;21091;-65
2022/01/29 01:47:40;;;;;;;49.73;23.87;;;;;;;1.95;100.00;100039.68;1664084;85;21059;-65
2022/01/29 01:50:09;;;;;;;55.55;25.52;;;;;;;1.97;100.00;100049.38;1664282;86;21079;-66
2022/01/29 01:52:37;;;;;;;53.30;24.43;;;;;;;1.96;100.00;100047.69;1664257;86;21139;-65
2022/01/29 01:55:06;;;;;;;50.55;24.27;;;;;;;1.96;100.00;100045.98;1664357;85;21088;-66
2022/01/29 01:57:34;;;;;;;56.60;26.42;;;;;;;2.02;100.00;100046.31;1664329;86;21028;-66
2022/01/29 02:00:01;;;;;;;57.30;25.10;;;;;;;2.02;100.00;100041.23;1664111;86;21142;-65
2022/01/29 02:02:31;;;;;;;47.95;22.48;;;;;;;2.07;100.00;100047.50;1664701;86;21068;-66
2022/01/29 02:04:58;;;;;;;47.53;23.07;;;;;;;2.03;100.00;100049.28;1664151;86;21135;-65
2022/01/29 02:07:25;;;;;;;47.50;23.27;;;;;;;2.03;100.00;100044.20;1664189;86;21583;-66
2022/01/29 02:09:54;;;;;;;47.20;22.70;;;;;;;2.06;100.00;100045.84;1664198;86;21103;-66
2022/01/29 02:12:24;;;;;;;42.95;21.82;;;;;;;1.98;100.00;100051.86;1664281;86;21036;-65
2022/01/29 02:14:51;;;;;;;44.85;22.22;;;;;;;1.98;100.00;100042.16;1664092;86;21107;-65
2022/01/29 02:17:18;;;;;;;44.20;22.87;;;;;;;2.03;100.00;100042.93;1664125;85;21063;-66
2022/01/29 02:19:45;;;;;;;43.65;22.10;;;;;;;1.98;100.00;100039.17;1664063;86;21067;-65
2022/01/29 02:22:13;;;;;;;44.23;20.90;;;;;;;2.04;100.00;100048.40;1664296;86;21111;-66
2022/01/29 02:24:40;;;;;;;45.85;22.27;;;;;;;2.09;100.00;100046.64;1664066;86;21095;-66
2022/01/29 02:27:09;;;;;;;43.55;21.97;;;;;;;2.10;100.00;100041.12;1664192;86;21059;-65
2022/01/29 02:29:36;;;;;;;43.10;21.35;;;;;;;2.09;100.00;100039.42;1664270;86;21599;-65
2022/01/29 02:32:05;;;;;;;35.65;18.90;;;;;;;2.14;100.00;100042.30;1664271;85;21071;-65
2022/01/29 02:34:33;;;;;;;36.05;19.05;;;;;;;2.13;100.00;100043.59;1664301;86;21527;-65
2022/01/29 02:37:01;;;;;;;39.42;19.65;;;;;;;2.12;100.00;100040.66;1664125;86;21162;-66
2022/01/29 02:39:30;;;;;;;39.33;19.35;;;;;;;2.10;100.00;100041.95;1664001;86;21108;-65
2022/01/29 02:41:58;;;;;;;37.88;18.95;;;;;;;2.10;100.00;100046.20;1664265;85;21091;-66
2022/01/29 02:44:25;;;;;;;39.30;19.37;;;;;;;2.12;100.00;100044.47;1664066;86;21119;-66
2022/01/29 02:46:54;;;;;;;36.42;19.52;;;;;;;2.12;100.00;100050.37;1664028;85;21043;-66
2022/01/29 02:49:25;;;;;;;36.93;19.42;;;;;;;2.10;100.00;100058.45;1663961;86;21118;-66
2022/01/29 02:51:55;;;;;;;33.15;16.55;;;;;;;2.17;100.00;100049.88;1664063;86;21059;-65
2022/01/29 02:54:24;;;;;;;35.85;18.02;;;;;;;2.17;100.00;100055.37;1664257;86;21051;-66
2022/01/29 02:56:52;;;;;;;34.25;18.15;;;;;;;2.18;100.00;100055.34;1664228;85;21051;-66
2022/01/29 02:59:19;;;;;;;38.92;19.02;;;;;;;2.17;100.00;100065.12;1664248;86;21087;-65
2022/01/29 03:01:47;;;;;;;36.70;19.05;;;;;;;2.14;100.00;100063.88;1664078;85;21548;-67
2022/01/29 03:04:15;;;;;;;38.70;19.25;;;;;;;2.17;100.00;100060.45;1664256;86;21063;-66
2022/01/29 03:06:43;;;;;;;38.78;18.65;;;;;;;2.13;100.00;100059.69;1664145;86;21508;-66
2022/01/29 03:09:10;;;;;;;35.98;17.90;;;;;;;2.24;100.00;100054.41;1664260;86;20992;-66
2022/01/29 03:11:39;;;;;;;36.23;19.37;;;;;;;2.26;100.00;100057.77;1663979;86;21573;-66
2022/01/29 03:14:06;;;;;;;34.18;17.55;;;;;;;2.26;100.00;100060.74;1664266;85;21075;-66
2022/01/29 03:16:34;;;;;;;32.30;17.57;;;;;;;2.22;100.00;100055.31;1664038;86;21107;-66
2022/01/29 03:19:03;;;;;;;29.60;17.15;;;;;;;2.16;100.00;100054.54;1664163;86;21060;-65
2022/01/29 03:21:30;;;;;;;28.83;15.38;;;;;;;2.21;100.00;100055.75;1664253;85;21052;-66
2022/01/29 03:23:58;;;;;;;33.98;18.87;;;;;;;2.12;100.00;100052.91;1664249;86;21087;-66
2022/01/29 03:26:27;;;;;;;32.88;17.57;;;;;;;2.13;100.00;100052.06;1664144;85;21646;-66
2022/01/29 03:28:54;;;;;;;33.42;17.37;;;;;;;2.03;100.00;100049.28;1664133;86;21083;-66
2022/01/29 03:31:21;;;;;;;30.92;15.63;;;;;;;2.03;100.00;100059.84;1663976;86;21064;-66
2022/01/29 03:33:48;;;;;;;32.30;17.12;;;;;;;1.96;100.00;100060.38;1664202;85;21064;-66
2022/01/29 03:36:15;;;;;;;30.23;16.37;;;;;;;1.97;100.00;100052.74;1664066;86;21063;-66
2022/01/29 03:38:42;;;;;;;32.10;16.60;;;;;;;1.97;100.00;100059.53;1664100;86;21481;-66
2022/01/29 03:41:11;;;;;;;32.95;17.37;;;;;;;1.96;100.00;100043.87;1664221;86;21051;-66
2022/01/29 03:43:44;;;;;;;30.68;16.17;;;;;;;1.97;100.00;100055.72;1663941;85;21091;-66
2022/01/29 03:46:07;;;;;;;33.55;17.20;;;;;;;1.93;100.00;100056.63;1663939;86;21056;-66
2022/01/29 03:48:34;;;;;;;30.50;16.50;;;;;;;1.98;100.00;100046.79;1664063;86;21075;-66
2022/01/29 03:51:02;;;;;;;28.62;15.40;;;;;;;1.95;100.00;100053.20;1664224;85;21103;-66
2022/01/29 03:53:29;;;;;;;33.83;17.07;;;;;;;1.92;100.00;100053.23;1663977;86;21072;-66
2022/01/29 03:55:59;;;;;;;32.80;17.60;;;;;;;1.92;100.00;100052.41;1664198;86;21058;-66
2022/01/29 03:58:27;;;;;;;29.50;16.48;;;;;;;1.94;100.00;100049.41;1664038;85;21059;-65
2022/01/29 04:00:55;;;;;;;34.38;17.02;;;;;;;1.90;100.00;100056.67;1664440;86;21501;-66
2022/01/29 04:03:24;;;;;;;29.65;16.48;;;;;;;1.93;100.00;100046.48;1664198;86;21600;-66
2022/01/29 04:05:51;;;;;;;28.55;14.78;;;;;;;1.92;100.00;100047.33;1664267;86;21051;-65
2022/01/29 04:08:18;;;;;;;31.50;17.32;;;;;;;1.86;100.00;100052.50;1664086;86;21092;-65
2022/01/29 04:10:47;;;;;;;32.08;17.15;;;;;;;1.84;100.00;100057.59;1664160;86;21044;-65
2022/01/29 04:13:20;;;;;;;32.78;17.37;;;;;;;1.90;100.00;100052.42;1664041;86;21060;-66
2022/01/29 04:15:45;;;;;;;33.02;18.27;;;;;;;1.80;100.00;100049.22;1664297;86;21080;-66
2022/01/29 04:18:12;;;;;;;34.78;18.37;;;;;;;1.80;100.00;100056.83;1663923;86;21107;-66
2022/01/29 04:20:39;;;;;;;36.63;19.57;;;;;;;1.85;100.00;100049.58;1664213;86;21047;-66
2022/01/29 04:23:07;;;;;;;35.40;19.70;;;;;;;1.83;100.00;100050.86;1664207;86;21576;-66
2022/01/29 04:25:35;;;;;;;36.23;19.23;;;;;;;1.77;100.00;100054.33;1664165;86;21008;-66
2022/01/29 04:28:03;;;;;;;35.95;19.32;;;;;;;1.76;100.00;100056.88;1664026;85;21572;-65
2022/01/29 04:30:33;;;;;;;35.38;18.73;;;;;;;1.79;100.00;100053.87;1664141;86;21068;-65
2022/01/29 04:33:44;;;;;;;35.60;19.70;;;;;;;1.80;100.00;100061.91;1663842;86;21063;-66
2022/01/29 04:35:33;;;;;;;33.98;18.73;;;;;;;1.77;100.00;100061.94;1655355;85;21509;-66
2022/01/29 04:38:00;;;;;;;34.60;19.20;;;;;;;1.73;100.00;100059.04;1664079;86;21520;-66
2022/01/29 04:40:27;;;;;;;32.80;17.92;;;;;;;1.77;100.00;100058.13;1664220;85;21064;-66
2022/01/29 04:42:55;;;;;;;33.92;18.92;;;;;;;1.76;100.00;100051.80;1663818;86;21106;-66
2022/01/29 04:45:22;;;;;;;32.85;18.10;;;;;;;1.80;100.00;100059.37;1664225;85;21588;-65
2022/01/29 04:47:49;;;;;;;34.92;18.92;;;;;;;1.80;100.00;100059.37;1663829;85;21079;-66
2022/01/29 04:50:17;;;;;;;34.65;19.32;;;;;;;1.85;100.00;100059.29;1664173;86;21072;-66
2022/01/29 04:52:45;;;;;;;32.58;19.87;;;;;;;1.88;100.00;100059.66;1664147;86;21091;-65
2022/01/29 04:55:12;;;;;;;35.48;20.57;;;;;;;1.86;100.00;100067.30;1664258;85;21008;-66
2022/01/29 04:57:41;;;;;;;39.75;20.37;;;;;;;1.85;100.00;100068.61;1663894;85;21103;-65
2022/01/29 05:00:12;;;;;;;34.98;19.35;;;;;;;1.89;100.00;100077.41;1664125;85;21043;-66
2022/01/29 05:02:39;;;;;;;36.05;20.35;;;;;;;1.87;100.00;100074.06;1664307;85;21710;-65
2022/01/29 05:05:08;;;;;;;36.33;19.45;;;;;;;1.91;100.00;100082.03;1664123;85;21532;-65
2022/01/29 05:07:36;;;;;;;34.30;19.87;;;;;;;1.90;100.00;100088.39;1664215;85;21540;-65
2022/01/29 05:10:05;;;;;;;34.43;19.65;;;;;;;1.88;100.00;100086.31;1664207;85;21072;-65
2022/01/29 05:12:58;;;;;;;34.13;19.65;;;;;;;1.97;100.00;100085.75;1663794;85;21541;-65
2022/01/29 05:29:12;;;;;;;35.88;19.45;;;;;;;2.09;100.00;100102.49;1664084;85;21072;-65
2022/01/29 05:31:40;;;;;;;33.95;19.40;;;;;;;2.15;100.00;100108.74;1664102;85;21107;-65
2022/01/29 05:34:07;;;;;;;33.28;19.65;;;;;;;2.16;100.00;100110.40;1664001;85;21072;-65
2022/01/29 05:36:35;;;;;;;32.08;18.77;;;;;;;2.24;100.00;100117.07;1664378;85;21111;-65
2022/01/29 05:39:04;;;;;;;40.15;21.57;;;;;;;2.23;100.00;100118.78;1664050;85;22685;-65
2022/01/29 05:41:32;;;;;;;37.70;21.42;;;;;;;2.28;100.00;100122.52;1664192;86;21103;-66
2022/01/29 05:43:59;;;;;;;39.20;22.35;;;;;;;2.38;100.00;100129.95;1663832;85;21080;-65
2022/01/29 05:46:26;;;;;;;39.98;21.50;;;;;;;2.39;100.00;100135.45;1663950;86;21087;-65
2022/01/29 05:48:54;;;;;;;35.70;19.75;;;;;;;2.36;100.00;100132.11;1664011;86;21075;-65
2022/01/29 05:51:21;;;;;;;35.28;19.75;;;;;;;2.44;100.00;100133.26;1664170;86;21099;-65
2022/01/29 05:53:49;;;;;;;33.10;19.82;;;;;;;2.45;100.00;100131.94;1664051;86;21118;-65
2022/01/29 05:56:16;;;;;;;30.25;17.48;;;;;;;2.49;100.00;100136.55;1664365;85;21047;-65
2022/01/29 05:58:44;;;;;;;28.27;16.80;;;;;;;2.58;100.00;100133.86;1663925;86;21016;-65
2022/01/29 06:01:12;;;;;;;29.00;16.93;;;;;;;2.61;100.00;100136.34;1664090;85;21071;-66
2022/01/29 06:03:39;;;;;;;29.50;17.98;;;;;;;2.65;100.00;100139.23;1664007;85;21155;-65
2022/01/29 06:06:06;;;;;;;29.07;17.48;;;;;;;2.80;100.00;100145.77;1664169;85;21103;-66
2022/01/29 06:08:33;;;;;;;29.05;16.65;;;;;;;2.80;100.00;100145.77;1663940;85;21084;-65
2022/01/29 06:11:01;;;;;;;31.95;17.07;;;;;;;2.87;100.00;100152.84;1663995;85;21052;-65
2022/01/29 06:13:28;;;;;;;26.77;15.72;;;;;;;2.87;100.00;100152.84;1672332;85;21068;-65
2022/01/29 06:15:57;;;;;;;27.75;16.12;;;;;;;2.82;100.00;100154.20;1670407;85;21044;-66
2022/01/29 06:18:25;;;;;;;25.30;15.32;;;;;;;2.76;100.00;100155.58;1705481;82;21028;-65
2022/01/29 06:20:57;;;;;;;24.20;14.87;;;;;;;2.85;100.00;100159.66;1713102;83;21019;-65
2022/01/29 06:23:30;;;;;;;25.37;15.28;;;;;;;2.84;100.00;100152.87;1673025;85;21017;-65
2022/01/29 06:25:53;;;;;;;24.75;15.90;;;;;;;2.84;100.00;100156.69;1658161;85;21029;-66
2022/01/29 06:28:22;;;;;;;25.52;14.75;;;;;;;2.89;100.00;100158.73;1680944;84;21136;-66
2022/01/29 06:30:49;;;;;;;25.92;15.60;;;;;;;2.78;100.00;100161.48;1669138;85;21508;-65
2022/01/29 06:33:17;;;;;;;25.65;15.15;;;;;;;2.89;100.00;100157.02;1680449;84;21128;-66
2022/01/29 06:35:45;;;;;;;24.00;14.30;;;;;;;3.09;100.00;100160.91;1677489;84;21095;-66
2022/01/29 06:38:14;;;;;;;26.10;14.93;;;;;;;3.07;100.00;100162.64;1677280;84;21075;-66
2022/01/29 06:40:43;;;;;;;23.52;14.87;;;;;;;3.11;100.00;100165.09;1674730;84;21043;-66
2022/01/29 06:43:11;;;;;;;23.30;14.68;;;;;;;3.23;100.00;100160.20;1678831;85;21098;-66
2022/01/29 06:45:42;;;;;;;23.38;13.78;;;;;;;3.31;100.00;100158.35;1680768;84;21063;-66
2022/01/29 06:48:09;;;;;;;19.90;13.08;;;;;;;3.28;100.00;100162.21;1683991;85;21015;-66
2022/01/29 06:50:38;;;;;;;20.37;12.75;;;;;;;3.26;100.00;100155.48;1677385;84;21018;-67
2022/01/29 06:53:07;;;;;;;20.97;12.93;;;;;;;3.22;100.00;100159.79;1680451;84;21039;-65
2022/01/29 06:55:35;;;;;;;22.75;13.08;;;;;;;3.25;100.00;100161.02;1674371;84;21646;-65
2022/01/29 06:58:04;;;;;;;20.27;12.45;;;;;;;3.20;100.00;100157.30;1684511;84;21084;-65
2022/01/29 07:00:32;;;;;;;20.45;12.85;;;;;;;3.27;100.00;100155.91;1680298;85;21041;-65
2022/01/29 07:03:00;;;;;;;17.25;11.28;;;;;;;3.28;100.00;100160.94;1665414;84;21155;-66
2022/01/29 07:05:29;;;;;;;20.52;12.40;;;;;;;3.16;100.00;100168.81;1669731;83;21103;-66
2022/01/29 07:07:56;;;;;;;18.27;11.93;;;;;;;3.22;100.00;100166.15;1675495;85;21079;-64
2022/01/29 07:10:23;;;;;;;18.77;12.05;;;;;;;3.25;100.00;100169.09;1640885;86;21106;-65
2022/01/29 07:12:51;;;;;;;18.07;12.50;;;;;;;3.32;100.00;100170.19;1681067;84;21560;-65
2022/01/29 07:15:18;;;;;;;18.15;12.10;;;;;;;3.41;100.00;100167.91;1687120;84;21501;-66
2022/01/29 07:17:45;;;;;;;16.50;10.70;;;;;;;3.54;100.00;100178.67;1683620;83;21087;-65
2022/01/29 07:20:14;;;;;;;16.75;11.03;;;;;;;3.54;100.00;100179.95;1673911;84;21150;-64
2022/01/29 07:22:41;;;;;;;17.42;11.38;;;;;;;3.64;100.00;100180.16;1677098;83;21581;-65
2022/01/29 07:25:09;;;;;;;16.77;11.25;;;;;;;3.69;100.00;100187.69;1677446;84;21080;-65
2022/01/29 07:27:37;;;;;;;18.10;11.03;;;;;;;3.74;100.00;100189.28;1672879;83;21563;-65
2022/01/29 07:30:06;;;;;;;16.70;10.55;;;;;;;3.74;100.00;100191.82;1663712;86;21076;-65
2022/01/29 07:32:33;;;;;;;14.33;10.23;;;;;;;3.87;100.00;100199.20;1662040;86;21056;-65
2022/01/29 07:35:01;;;;;;;16.50;10.70;;;;;;;3.94;100.00;100199.48;1660528;86;21135;-64
2022/01/29 07:37:29;;;;;;;14.70;9.95;;;;;;;3.94;100.00;100203.30;1660369;86;21147;-66
2022/01/29 07:39:56;;;;;;;12.43;8.85;;;;;;;3.97;100.00;100209.59;1660565;86;21091;-67
2022/01/29 07:42:23;;;;;;;14.00;9.00;;;;;;;4.03;100.00;100214.55;1660259;86;21135;-66
2022/01/29 07:44:51;;;;;;;13.60;8.65;;;;;;;4.05;100.00;100218.34;1660492;86;21068;-67
2022/01/29 07:47:18;;;;;;;11.88;8.20;;;;;;;4.08;100.00;100224.66;1660179;86;21056;-67
2022/01/29 07:49:45;;;;;;;14.40;8.70;;;;;;;3.98;100.00;100231.20;1660701;86;21071;-66
2022/01/29 07:52:13;;;;;;;12.10;8.13;;;;;;;3.99;100.00;100229.49;1660600;86;21040;-67
2022/01/29 07:54:42;;;;;;;12.30;7.92;;;;;;;4.13;100.00;100234.30;1660480;86;21127;-66
2022/01/29 07:57:09;;;;;;;13.30;8.18;;;;;;;4.14;100.00;100244.90;1660325;86;21580;-66
2022/01/29 07:59:36;;;;;;;12.07;8.00;;;;;;;4.12;100.00;100244.92;1660215;86;21044;-67
2022/01/29 08:02:03;;;;;;;11.63;7.75;;;;;;;4.27;100.00;100250.55;1660502;86;21127;-66
2022/01/29 08:04:32;;;;;;;11.22;7.92;;;;;;;4.28;100.00;100251.80;1660664;86;21620;-66
2022/01/29 08:06:59;;;;;;;10.58;7.33;;;;;;;4.27;100.00;100255.20;1660244;86;21099;-66
2022/01/29 08:09:26;;;;;;;11.57;7.20;;;;;;;4.38;100.00;100262.19;1660451;86;21098;-66
2022/01/29 08:11:55;;;;;;;10.23;7.72;;;;;;;4.36;100.00;100265.20;1660121;86;21071;-67
2022/01/29 08:14:22;;;;;;;10.78;6.70;;;;;;;4.33;100.00;100269.52;1660540;86;22180;-66
2022/01/29 08:16:49;;;;;;;9.68;6.72;;;;;;;4.35;100.00;100269.88;1660453;86;21124;-66
2022/01/29 08:19:16;;;;;;;9.65;6.70;;;;;;;4.46;100.00;100270.94;1660472;86;21092;-66
2022/01/29 08:21:44;;;;;;;9.10;6.33;;;;;;;4.58;100.00;100279.98;1660548;86;21552;-65
2022/01/29 08:24:11;;;;;;;9.53;5.47;;;;;;;4.55;100.00;100278.36;1660729;86;21385;-65
2022/01/29 08:26:39;;;;;;;6.75;5.12;;;;;;;4.60;100.00;100279.52;1660357;86;21091;-66
2022/01/29 08:29:07;;;;;;;7.40;5.10;;;;;;;4.69;100.00;100273.39;1660676;86;21071;-65
2022/01/29 08:31:35;;;;;;;5.70;4.50;;;;;;;4.71;100.00;100283.11;1660712;86;21046;-66
2022/01/29 08:34:03;;;;;;;7.55;4.67;;;;;;;4.66;100.00;100283.64;1660569;86;21028;-66
2022/01/29 08:36:30;;;;;;;4.97;4.03;;;;;;;4.80;100.00;100279.05;1660473;86;21075;-66
2022/01/29 08:38:57;;;;;;;5.60;4.00;;;;;;;4.94;100.00;100277.45;1660478;86;21036;-65
2022/01/29 08:41:25;;;;;;;5.97;4.22;;;;;;;5.13;100.00;100282.92;1660392;86;21064;-66
2022/01/29 08:43:52;;;;;;;6.08;3.98;;;;;;;5.15;100.00;100281.17;1660540;86;21603;-66
2022/01/29 08:46:20;;;;;;;4.60;3.47;;;;;;;5.23;100.00;100285.64;1660550;86;21638;-65
2022/01/29 08:48:47;;;;;;;4.22;3.42;;;;;;;5.29;100.00;100285.92;1660604;86;21110;-66
2022/01/29 08:51:15;;;;;;;4.40;3.75;;;;;;;5.27;100.00;100288.95;1660533;86;22238;-65
2022/01/29 08:53:43;;;;;;;5.55;3.42;;;;;;;5.49;100.00;100286.69;1660449;86;21099;-65
2022/01/29 08:56:11;;;;;;;5.37;3.47;;;;;;;5.34;100.00;100291.77;1660767;86;21059;-66
2022/01/29 08:58:39;;;;;;;4.92;3.52;;;;;;;5.63;100.00;100293.53;1661032;86;21088;-64
2022/01/29 09:01:08;;;;;;;4.55;3.08;;;;;;;5.64;100.00;100293.95;1661427;86;21048;-65
2022/01/29 09:03:35;;;;;;;4.67;2.77;;;;;;;5.74;100.00;100288.98;1661708;86;21108;-65
2022/01/29 09:06:04;;;;;;;4.45;2.92;;;;;;;5.75;100.00;100291.91;1661559;86;21064;-65
2022/01/29 09:08:32;;;;;;;3.50;2.85;;;;;;;5.91;100.00;100287.67;1661575;86;21551;-65
2022/01/29 09:10:59;;;;;;;4.17;2.90;;;;;;;5.95;100.00;100291.39;1661454;86;21094;-66
2022/01/29 09:13:27;;;;;;;8.48;3.50;;;;;;;5.96;100.00;100300.75;1652677;86;21020;-64
2022/01/29 09:15:56;;;;;;;5.35;3.00;;;;;;;6.25;100.00;100295.68;1667474;86;20980;-65
2022/01/29 09:18:25;;;;;;;6.83;3.58;;;;;;;6.28;100.00;100296.41;1665307;86;21004;-66
2022/01/29 09:20:52;;;;;;;5.90;3.55;;;;;;;6.27;100.00;100297.75;1665265;86;21077;-66
2022/01/29 09:23:19;;;;;;;3.80;3.20;;;;;;;6.21;100.00;100308.53;1662649;86;21029;-66
2022/01/29 09:25:47;;;;;;;3.77;2.62;;;;;;;6.28;100.00;100307.08;1662478;86;21078;-66
2022/01/29 09:28:15;;;;;;;3.72;2.52;;;;;;;6.35;100.00;100297.08;1665628;86;21032;-65
2022/01/29 09:30:43;;;;;;;2.95;2.55;;;;;;;6.41;100.00;100297.72;1665061;86;21075;-66
2022/01/29 09:33:12;;;;;;;3.50;2.92;;;;;;;6.39;100.00;100308.44;1665845;86;21052;-65
2022/01/29 09:35:41;;;;;;;4.45;2.98;;;;;;;6.39;100.00;100303.32;1664753;86;21015;-65
2022/01/29 09:38:09;;;;;;;4.12;3.33;;;;;;;6.33;100.00;100304.78;1655730;86;21082;-65
2022/01/29 09:40:39;;;;;;;3.75;3.00;;;;;;;6.16;100.00;100304.02;1657274;87;21054;-64
2022/01/29 09:43:08;;;;;;;3.67;3.00;;;;;;;6.03;100.00;100305.69;1617735;87;21123;-65
2022/01/29 09:45:37;;;;;;;3.87;2.83;;;;;;;5.65;100.00;100305.82;1654392;87;21070;-65
2022/01/29 09:48:07;;;;;;;2.98;2.55;;;;;;;5.55;100.00;100316.71;1656886;86;21545;-66
2022/01/29 09:50:38;;;;;;;3.67;3.08;;;;;;;5.36;100.00;100325.30;1657038;87;21086;-65
2022/01/29 09:53:07;;;;;;;5.37;4.00;;;;;;;5.33;100.00;100322.84;1662647;86;21528;-65
2022/01/29 09:55:37;;;;;;;4.37;3.37;;;;;;;5.33;100.00;100329.22;1669571;86;21075;-65
2022/01/29 09:58:05;;;;;;;3.10;2.80;;;;;;;5.38;100.00;100327.38;1669642;86;21520;-66
2022/01/29 10:00:33;;;;;;;5.30;2.92;;;;;;;5.27;100.00;100329.79;1669492;86;21072;-65
2022/01/29 10:03:15;;;;;;;4.17;2.92;;;;;;;5.41;100.00;100330.28;1667782;86;21559;-65
2022/01/29 10:05:45;;;;;;;3.67;3.10;;;;;;;5.50;100.00;100336.88;1667370;86;21053;-65
2022/01/29 10:08:13;;;;;;;3.87;3.45;;;;;;;5.65;100.00;100334.36;1665338;86;21078;-66
2022/01/29 10:10:56;;;;;;;3.67;2.98;;;;;;;5.61;100.00;100343.36;1666148;85;21076;-67
2022/01/29 10:13:35;;;;;;;3.65;3.10;;;;;;;5.59;100.00;100336.18;1666837;86;21507;-64
2022/01/29 10:16:13;;;;;;;5.03;3.10;;;;;;;5.66;100.00;100340.70;1662171;86;21035;-67
2022/01/29 10:18:45;;;;;;;4.12;3.20;;;;;;;5.58;100.00;100341.35;1633721;88;21069;-65
2022/01/29 10:21:22;;;;;;;4.30;2.92;;;;;;;5.35;100.00;100350.85;1652712;86;21059;-67
2022/01/29 10:24:14;;;;;;;3.47;3.10;;;;;;;5.27;100.00;100351.07;1663263;84;21028;-66
2022/01/29 10:26:46;;;;;;;4.20;3.27;;;;;;;5.23;100.00;100348.16;1661310;86;21500;-66
2022/01/29 10:29:26;;;;;;;3.40;2.62;;;;;;;5.11;100.00;100353.56;1661385;86;21028;-66
2022/01/29 10:31:57;;;;;;;3.20;2.70;;;;;;;4.98;100.00;100353.86;1664787;86;21064;-67
2022/01/29 10:34:36;;;;;;;3.75;3.00;;;;;;;4.92;100.00;100352.73;1665724;86;21040;-66
2022/01/29 10:37:21;;;;;;;4.40;3.42;;;;;;;4.85;100.00;100352.48;1664148;86;21061;-67
2022/01/29 10:40:02;;;;;;;5.25;3.50;;;;;;;4.80;100.00;100354.28;1662570;86;21039;-65
2022/01/29 10:42:34;;;;;;;5.20;3.72;;;;;;;4.81;100.00;100356.81;1670961;86;21095;-66
2022/01/29 10:45:07;;;;;;;4.42;3.33;;;;;;;4.75;100.00;100360.77;1671308;86;21538;-64
2022/01/29 10:47:56;;;;;;;3.55;2.75;;;;;;;4.71;100.00;100370.64;1671373;86;21119;-65
2022/01/29 10:50:25;;;;;;;6.40;4.37;;;;;;;4.50;100.00;100364.72;1671257;86;21071;-65
2022/01/29 10:52:52;;;;;;;6.83;4.28;;;;;;;4.51;100.00;100367.25;1671180;86;21019;-66
2022/01/29 10:55:19;;;;;;;6.08;4.30;;;;;;;4.67;100.00;100366.92;1670978;86;21074;-65
2022/01/29 10:57:49;;;;;;;6.25;4.50;;;;;;;4.71;100.00;100369.81;1670559;86;21047;-65
2022/01/29 11:00:24;;;;;;;5.53;4.03;;;;;;;4.59;100.00;100370.47;1671039;86;21063;-65
2022/01/29 11:02:57;;;;;;;5.50;3.85;;;;;;;4.62;100.00;100370.83;1670883;86;21528;-65
2022/01/29 11:05:26;;;;;;;5.67;3.90;;;;;;;4.64;100.00;100374.62;1671488;86;21086;-65
2022/01/29 11:07:55;;;;;;;6.87;4.47;;;;;;;4.56;100.00;100378.61;1670465;86;21576;-66
2022/01/29 11:10:25;;;;;;;9.25;4.53;;;;;;;4.48;100.00;100378.80;1666528;86;21060;-66
2022/01/29 11:12:52;;;;;;;10.82;5.40;;;;;;;4.21;100.00;100374.64;1666760;86;21072;-66
2022/01/29 11:15:22;;;;;;;10.75;5.20;;;;;;;4.20;100.00;100372.98;1670257;86;21086;-64
2022/01/29 11:17:51;;;;;;;10.60;5.50;;;;;;;4.15;100.00;100371.39;1671148;86;21047;-64
2022/01/29 11:20:18;;;;;;;8.40;4.58;;;;;;;4.21;100.00;100381.02;1671276;86;21075;-64
2022/01/29 11:22:49;;;;;;;7.00;4.50;;;;;;;4.20;100.00;100383.61;1671268;86;21114;-66
2022/01/29 11:25:31;;;;;;;6.65;4.33;;;;;;;4.12;100.00;100381.66;1667923;84;21092;-66
2022/01/29 11:28:16;;;;;;;5.10;3.92;;;;;;;4.01;100.00;100386.93;1661395;86;21040;-66
2022/01/29 11:30:46;;;;;;;7.10;4.45;;;;;;;4.05;100.00;100382.63;1652375;86;21020;-67
2022/01/29 11:33:14;;;;;;;6.58;4.15;;;;;;;4.14;100.00;100385.01;1664497;86;21056;-66
2022/01/29 11:35:55;;;;;;;8.28;4.78;;;;;;;4.13;100.00;100393.06;1665317;86;21039;-67